Pagrindinis puslapis
METAR-TAF:

METAR-TAF

Oro uostai :

Tiandzinas, Kinija

platuma: 39-11N, ilguma: 117-21E, Aukštis: 3 m

Dabartinis oras

Ataskaita buvo paskelbta 11 minutes, ne 17:30 UTC
Vėjas 4 kt iš Šiaurės Vakarų
Temperatūra 11°C
Drėgmė 58%
Slėgis 1020 hPa
Matomumas: 8000 m

METAR: ZBTJ 201730Z 32002MPS 8000 NSC 11/03 Q1020 NOSIG

Laikas: 01:41 (17:41 UTC)

Prognozė

Ataskaita buvo paskelbta 8 valandos ir 47 minutes, ne 08:54 UTC
Prognozė galioja nuo 20 metu 12 UTC su 21 metu 12 UTC
Vėjas 8 kt iš Šiaurės/Šiaurės Vakarų
Matomumas: 5000 m
migla

TAF: ZBTJ 200854Z 2012/2112 34004MPS 5000 HZ NSC TX22/2107Z TN08/2021Z

Orai ataskaitas ir orų prognozės (METAR, TAF).

turimą stotys yra geltonos ir raudonos taškus žemėlapyje.

Perkelti pele per norėdami pamatyti stoties vardą.

Tada spustelėkite, norėdami matyti oro stebėjimo ir prognozės.

Norėdami pakeisti žemėlapį: spustelėkite ant žalios mygtukų su juodo kryžiaus žemyn,; žalią mygtuką su brūkšneliu, jei norite nutolinti; arba žalių rodyklių gretimoms žemėlapius.


METAR-TAF: